Time;durP1;ratioP1;P1;durP2;ratioP2;P2;SDS_P1;SDS_P2;PMS_P1;PMS_P2;Temp;Humidity;BMP_temperature;BMP_pressure;BME280_temperature;BME280_humidity;BME280_pressure;Samples;Min_cycle;Max_cycle;Signal;HPM_P1;HPM_P2
2021/10/24 00:00:08;;;;;;;27.65;19.35;;;8.30;99.90;;;;;;6060962;23;20110;-41
2021/10/24 00:02:42;;;;;;;22.27;19.77;;;8.20;99.90;;;;;;6061843;23;20031;-41
2021/10/24 00:05:08;;;;;;;24.52;19.48;;;8.20;99.90;;;;;;6061553;23;20034;-42
2021/10/24 00:07:35;;;;;;;27.25;20.23;;;8.10;99.90;;;;;;6062001;23;20071;-42
2021/10/24 00:10:02;;;;;;;26.00;20.60;;;8.10;99.90;;;;;;6036925;23;20030;-41
2021/10/24 00:12:34;;;;;;;24.27;19.63;;;8.10;99.90;;;;;;6036492;23;20030;-40
2021/10/24 00:15:05;;;;;;;21.65;19.05;;;8.10;99.90;;;;;;6062285;23;20030;-48
2021/10/24 00:17:33;;;;;;;24.63;20.27;;;8.10;99.90;;;;;;6035342;23;20405;-43
2021/10/24 00:19:59;;;;;;;22.83;19.52;;;8.10;99.90;;;;;;6061844;23;20039;-43
2021/10/24 00:22:25;;;;;;;23.35;20.20;;;8.00;99.90;;;;;;6061248;23;20089;-43
2021/10/24 00:24:54;;;;;;;30.55;19.75;;;8.10;99.90;;;;;;6061894;23;20113;-41
2021/10/24 00:27:20;;;;;;;23.52;19.38;;;8.10;99.90;;;;;;6060555;23;20023;-41
2021/10/24 00:29:49;;;;;;;26.38;20.98;;;8.00;99.90;;;;;;6061641;23;20062;-43
2021/10/24 00:32:15;;;;;;;24.95;18.73;;;8.00;99.90;;;;;;6061543;23;20041;-42
2021/10/24 00:34:44;;;;;;;25.17;19.02;;;8.00;99.90;;;;;;6061288;23;20022;-40
2021/10/24 00:37:10;;;;;;;20.88;17.75;;;8.00;99.90;;;;;;6061206;23;20027;-41
2021/10/24 00:39:39;;;;;;;20.33;18.27;;;8.00;99.90;;;;;;6060358;23;20031;-43
2021/10/24 00:42:05;;;;;;;25.42;18.90;;;8.00;99.90;;;;;;6060650;23;20058;-46
2021/10/24 00:44:33;;;;;;;23.50;17.50;;;8.00;99.90;;;;;;6060308;23;20445;-45
2021/10/24 00:47:04;;;;;;;19.45;16.88;;;7.90;99.90;;;;;;6035446;23;20027;-42
2021/10/24 00:49:34;;;;;;;21.42;17.20;;;7.90;99.90;;;;;;6037052;23;20031;-43
2021/10/24 00:52:02;;;;;;;24.77;16.67;;;7.80;99.90;;;;;;6061726;23;20117;-40
2021/10/24 00:54:32;;;;;;;19.20;16.35;;;7.80;99.90;;;;;;6061149;23;20035;-45
2021/10/24 00:57:03;;;;;;;23.35;17.65;;;7.80;99.90;;;;;;6060885;23;20027;-41
2021/10/24 00:59:29;;;;;;;19.35;17.25;;;7.70;99.90;;;;;;6060095;23;20073;-41
2021/10/24 01:01:55;;;;;;;23.90;17.73;;;7.70;99.90;;;;;;6061323;23;20106;-41
2021/10/24 01:04:22;;;;;;;21.25;17.92;;;7.70;99.90;;;;;;6061143;23;20030;-41
2021/10/24 01:06:53;;;;;;;22.85;16.90;;;7.60;99.90;;;;;;6035359;23;20019;-43
2021/10/24 01:09:24;;;;;;;21.13;16.02;;;7.50;99.90;;;;;;6035529;23;20389;-41
2021/10/24 01:11:52;;;;;;;20.50;18.02;;;7.50;99.90;;;;;;6060823;23;20037;-41
2021/10/24 01:14:19;;;;;;;26.33;18.52;;;7.40;99.90;;;;;;6059379;23;20030;-40
2021/10/24 01:16:45;;;;;;;22.63;19.08;;;7.40;99.90;;;;;;6035678;23;20065;-41
2021/10/24 01:19:13;;;;;;;22.58;17.85;;;7.30;99.90;;;;;;6061083;23;20492;-41
2021/10/24 01:21:40;;;;;;;24.27;17.45;;;7.30;99.90;;;;;;6059037;23;20602;-41
2021/10/24 01:24:07;;;;;;;23.58;17.85;;;7.20;99.90;;;;;;6037034;23;20352;-41
2021/10/24 01:26:38;;;;;;;22.95;17.80;;;7.10;99.90;;;;;;6036971;23;20102;-40
2021/10/24 01:29:05;;;;;;;21.67;18.55;;;7.10;99.90;;;;;;6063380;23;20066;-40
2021/10/24 01:31:32;;;;;;;22.05;18.33;;;7.00;99.90;;;;;;6037879;23;20031;-40
2021/10/24 01:34:00;;;;;;;22.05;19.10;;;7.00;99.90;;;;;;6037709;23;20456;-41
2021/10/24 01:36:26;;;;;;;25.95;18.63;;;7.00;99.90;;;;;;6061633;23;20109;-40
2021/10/24 01:38:52;;;;;;;24.05;19.23;;;6.90;99.90;;;;;;6062564;23;20033;-41
2021/10/24 01:41:28;;;;;;;23.52;19.98;;;6.90;99.90;;;;;;6062147;23;20034;-44
2021/10/24 01:43:55;;;;;;;29.48;20.73;;;6.80;99.90;;;;;;6038236;23;20019;-40
2021/10/24 01:46:21;;;;;;;26.55;18.58;;;6.70;99.90;;;;;;6038216;23;20030;-42
2021/10/24 01:48:48;;;;;;;25.60;20.42;;;6.80;99.90;;;;;;6037727;23;20448;-39
2021/10/24 01:51:21;;;;;;;30.58;20.65;;;6.80;99.90;;;;;;6063340;23;20085;-39
2021/10/24 01:53:48;;;;;;;24.88;20.27;;;6.70;99.90;;;;;;6062784;23;20027;-41
2021/10/24 01:56:15;;;;;;;24.10;20.10;;;6.70;99.90;;;;;;6036624;23;20050;-41
2021/10/24 01:58:42;;;;;;;27.70;20.23;;;6.60;99.90;;;;;;6036144;23;20027;-40
2021/10/24 02:01:09;;;;;;;28.88;19.90;;;6.60;99.90;;;;;;6079114;23;20037;-42
2021/10/24 02:03:54;;;;;;;30.63;21.85;;;6.60;99.90;;;;;;6091607;23;20022;-41
2021/10/24 02:06:35;;;;;;;23.95;20.30;;;6.50;99.90;;;;;;6091183;23;20030;-41
2021/10/24 02:09:02;;;;;;;26.50;21.63;;;6.50;99.90;;;;;;6089449;23;20033;-42
2021/10/24 02:11:29;;;;;;;25.55;20.38;;;6.40;99.90;;;;;;6088562;23;20348;-40
2021/10/24 02:13:58;;;;;;;25.48;20.38;;;6.40;99.90;;;;;;6089346;23;20435;-39
2021/10/24 02:16:25;;;;;;;27.55;21.00;;;6.30;99.90;;;;;;6090404;23;20070;-39
2021/10/24 02:18:51;;;;;;;28.23;23.35;;;6.30;99.90;;;;;;6089179;23;20456;-43
2021/10/24 02:21:18;;;;;;;29.80;24.05;;;6.30;99.90;;;;;;6089207;23;20444;-41
2021/10/24 02:23:44;;;;;;;25.17;21.90;;;6.20;99.90;;;;;;6089187;23;20026;-40
2021/10/24 02:26:13;;;;;;;30.67;20.60;;;6.20;99.90;;;;;;6091627;23;20360;-43
2021/10/24 02:28:39;;;;;;;27.25;20.98;;;6.10;99.90;;;;;;6114123;23;20035;-49
2021/10/24 02:31:06;;;;;;;30.00;20.67;;;6.10;99.90;;;;;;6089827;23;20050;-41
2021/10/24 02:33:55;;;;;;;27.23;20.70;;;6.10;99.90;;;;;;6089538;23;20026;-39
2021/10/24 02:36:42;;;;;;;27.40;19.25;;;6.10;99.90;;;;;;6071137;23;20026;-41
2021/10/24 02:39:09;;;;;;;29.38;22.70;;;6.00;99.90;;;;;;6089346;23;20022;-40
2021/10/24 02:41:38;;;;;;;28.17;20.80;;;6.00;99.90;;;;;;6090021;23;20058;-41
2021/10/24 02:44:08;;;;;;;27.42;19.75;;;5.90;99.90;;;;;;6089948;23;20427;-43
2021/10/24 02:46:44;;;;;;;27.95;20.25;;;5.90;99.90;;;;;;6089770;23;20073;-40
2021/10/24 02:49:12;;;;;;;25.17;19.13;;;5.80;99.90;;;;;;6088890;23;20035;-41
2021/10/24 02:51:48;;;;;;;29.25;20.92;;;5.80;99.90;;;;;;6089754;23;20077;-41
2021/10/24 02:54:15;;;;;;;29.73;20.65;;;5.80;99.90;;;;;;6089850;23;20032;-39
2021/10/24 02:56:41;;;;;;;25.48;20.38;;;5.80;99.90;;;;;;6091132;23;20045;-41
2021/10/24 02:59:09;;;;;;;26.02;19.48;;;5.80;99.90;;;;;;6090498;23;20027;-41
2021/10/24 03:01:35;;;;;;;25.90;18.85;;;5.70;99.90;;;;;;6036332;23;20030;-39
2021/10/24 03:04:04;;;;;;;24.75;19.33;;;5.70;99.90;;;;;;6060565;23;20073;-43
2021/10/24 03:06:31;;;;;;;27.02;19.02;;;5.70;99.90;;;;;;6036792;23;20038;-42
2021/10/24 03:09:01;;;;;;;24.52;20.05;;;5.70;99.90;;;;;;6037593;23;20069;-41
2021/10/24 03:11:28;;;;;;;26.55;19.10;;;5.70;99.90;;;;;;6060203;23;20026;-42
2021/10/24 03:13:57;;;;;;;25.48;19.75;;;5.60;99.90;;;;;;6062028;23;20034;-39
2021/10/24 03:16:25;;;;;;;27.25;19.40;;;5.60;99.90;;;;;;6059786;23;20027;-40
2021/10/24 03:18:51;;;;;;;29.70;20.48;;;5.60;99.90;;;;;;6011812;23;20126;-40
2021/10/24 03:21:17;;;;;;;21.05;18.70;;;5.60;99.90;;;;;;6035570;23;20460;-43
2021/10/24 03:23:50;;;;;;;25.58;19.02;;;5.60;99.90;;;;;;6035381;23;20452;-42
2021/10/24 03:26:21;;;;;;;25.50;19.25;;;5.60;99.90;;;;;;6062586;23;20030;-43
2021/10/24 03:28:47;;;;;;;25.20;18.75;;;5.60;99.90;;;;;;6061829;23;20066;-43
2021/10/24 03:31:14;;;;;;;28.17;18.73;;;5.50;99.90;;;;;;6036309;23;20109;-40
2021/10/24 03:33:40;;;;;;;25.83;18.90;;;5.50;99.90;;;;;;6035266;23;20037;-42
2021/10/24 03:36:08;;;;;;;27.60;19.33;;;5.50;99.90;;;;;;6060554;23;20086;-41
2021/10/24 03:38:35;;;;;;;20.80;17.42;;;5.50;99.90;;;;;;6036921;23;20065;-40
2021/10/24 03:41:01;;;;;;;25.95;19.13;;;5.50;99.90;;;;;;6061306;23;20082;-41
2021/10/24 03:43:28;;;;;;;24.30;18.90;;;5.50;99.90;;;;;;6060077;23;20026;-42
2021/10/24 03:45:55;;;;;;;27.05;19.48;;;5.50;99.90;;;;;;6036187;23;20066;-41
2021/10/24 03:48:26;;;;;;;26.48;17.52;;;5.40;99.90;;;;;;6036084;23;20035;-42
2021/10/24 03:50:52;;;;;;;22.95;18.23;;;5.50;99.90;;;;;;6036208;23;20030;-41
2021/10/24 03:53:22;;;;;;;27.30;20.00;;;5.50;99.90;;;;;;6062242;23;20046;-39
2021/10/24 03:55:48;;;;;;;27.58;19.10;;;5.40;99.90;;;;;;6036896;23;20483;-39
2021/10/24 03:58:15;;;;;;;25.73;18.38;;;5.40;99.90;;;;;;6061761;23;20426;-39
2021/10/24 04:00:43;;;;;;;24.05;18.50;;;5.40;99.90;;;;;;6067408;23;20368;-40
2021/10/24 04:03:11;;;;;;;22.52;18.05;;;5.40;99.90;;;;;;6088762;23;20026;-42
2021/10/24 04:05:49;;;;;;;25.20;18.33;;;5.30;99.90;;;;;;6089071;23;20113;-43
2021/10/24 04:08:17;;;;;;;27.13;18.95;;;5.40;99.90;;;;;;6088496;23;20089;-42
2021/10/24 04:10:47;;;;;;;25.02;19.00;;;5.30;99.90;;;;;;6087137;23;20468;-42
2021/10/24 04:13:15;;;;;;;;;;;5.30;99.90;;;;;;6091070;23;20109;-43
2021/10/24 04:15:44;;;;;;;27.00;17.80;;;5.30;99.90;;;;;;6089112;23;19928;-42
2021/10/24 04:18:30;;;;;;;21.67;19.23;;;5.30;99.90;;;;;;6090453;23;20034;-45
2021/10/24 04:20:59;;;;;;;27.60;18.63;;;5.20;99.90;;;;;;6089273;23;20105;-42
2021/10/24 04:23:25;;;;;;;25.48;17.98;;;5.20;99.90;;;;;;6089103;23;20030;-41
2021/10/24 04:25:51;;;;;;;22.70;18.98;;;5.20;99.90;;;;;;6113103;23;20026;-41
2021/10/24 04:28:17;;;;;;;28.15;19.88;;;5.20;99.90;;;;;;6090785;23;20081;-40
2021/10/24 04:30:44;;;;;;;27.77;20.25;;;5.20;99.90;;;;;;6090229;23;20101;-43
2021/10/24 04:33:10;;;;;;;27.90;19.10;;;5.20;99.90;;;;;;6089075;23;20364;-41
2021/10/24 04:35:38;;;;;;;23.45;18.20;;;5.20;99.90;;;;;;6064303;23;20531;-41
2021/10/24 04:38:04;;;;;;;26.85;18.88;;;5.20;99.90;;;;;;6088197;23;20042;-42
2021/10/24 04:40:30;;;;;;;27.17;20.00;;;5.20;99.90;;;;;;6089490;23;20026;-41
2021/10/24 04:43:03;;;;;;;24.80;18.77;;;5.20;99.90;;;;;;6088796;23;20034;-41
2021/10/24 04:45:31;;;;;;;27.17;18.05;;;5.10;99.90;;;;;;6090193;23;20395;-41
2021/10/24 04:47:57;;;;;;;28.35;18.98;;;5.10;99.90;;;;;;6088183;23;20527;-41
2021/10/24 04:50:23;;;;;;;29.25;19.52;;;5.10;99.90;;;;;;6088651;23;20026;-41
2021/10/24 04:52:49;;;;;;;27.38;19.17;;;5.10;99.90;;;;;;6063458;23;20121;-42
2021/10/24 04:55:16;;;;;;;23.65;19.63;;;5.10;99.90;;;;;;6063193;23;20030;-41
2021/10/24 04:57:42;;;;;;;25.63;19.00;;;5.10;99.90;;;;;;6088887;23;20081;-42
2021/10/24 05:00:09;;;;;;;24.67;19.40;;;5.10;99.90;;;;;;6080957;23;20026;-41
2021/10/24 05:02:37;;;;;;;32.45;20.33;;;5.10;99.90;;;;;;6038182;23;20030;-40
2021/10/24 05:05:04;;;;;;;25.83;19.05;;;5.10;99.90;;;;;;6063639;23;20034;-41
2021/10/24 05:07:33;;;;;;;25.42;19.60;;;5.00;99.90;;;;;;6037766;23;20038;-41
2021/10/24 05:10:00;;;;;;;26.50;19.67;;;5.00;99.90;;;;;;6014667;23;20030;-42
2021/10/24 05:12:26;;;;;;;24.00;19.75;;;5.00;99.90;;;;;;6062998;23;20483;-40
2021/10/24 05:14:56;;;;;;;29.38;20.50;;;5.00;99.90;;;;;;6037790;23;20090;-41
2021/10/24 05:17:22;;;;;;;25.83;19.58;;;5.00;99.90;;;;;;6063729;23;20628;-41
2021/10/24 05:19:48;;;;;;;29.23;20.98;;;5.00;99.90;;;;;;6061148;23;20049;-41
2021/10/24 05:22:17;;;;;;;29.63;20.88;;;5.00;99.90;;;;;;6061710;23;20114;-41
2021/10/24 05:24:43;;;;;;;26.20;20.00;;;4.90;99.90;;;;;;6014011;23;20031;-40
2021/10/24 05:27:09;;;;;;;25.63;20.00;;;4.90;99.90;;;;;;6037503;23;20357;-41
2021/10/24 05:29:36;;;;;;;27.10;20.25;;;5.00;99.90;;;;;;6037982;23;20062;-41
2021/10/24 05:32:03;;;;;;;27.60;21.80;;;4.90;99.90;;;;;;6036790;23;20030;-42
2021/10/24 05:34:29;;;;;;;27.55;20.35;;;4.90;99.90;;;;;;6061903;23;20389;-42
2021/10/24 05:37:08;;;;;;;27.55;20.00;;;4.80;99.90;;;;;;6036711;23;20057;-43
2021/10/24 05:39:34;;;;;;;28.88;21.30;;;4.80;99.90;;;;;;6012676;23;20030;-41
2021/10/24 05:42:12;;;;;;;25.85;20.08;;;4.80;99.90;;;;;;6037366;23;20026;-42
2021/10/24 05:44:40;;;;;;;28.95;20.40;;;4.80;99.90;;;;;;6037503;23;20077;-40
2021/10/24 05:47:06;;;;;;;28.88;21.33;;;4.80;99.90;;;;;;6036929;23;20026;-43
2021/10/24 05:49:32;;;;;;;33.67;20.95;;;4.80;99.90;;;;;;6062903;23;20448;-43
2021/10/24 05:52:03;;;;;;;29.92;20.90;;;4.80;99.90;;;;;;6060886;23;20078;-42
2021/10/24 05:54:29;;;;;;;28.13;21.30;;;4.80;99.90;;;;;;6036824;23;20035;-41
2021/10/24 05:56:55;;;;;;;29.25;21.33;;;4.80;99.90;;;;;;6060913;23;20033;-41
2021/10/24 05:59:47;;;;;;;30.92;21.80;;;4.80;99.90;;;;;;5986371;23;20064;-41
2021/10/24 06:02:22;;;;;;;32.08;21.17;;;4.80;99.90;;;;;;5983172;23;20476;-42
2021/10/24 06:05:07;;;;;;;32.50;21.85;;;4.80;99.90;;;;;;6030980;23;20098;-41
2021/10/24 06:07:35;;;;;;;30.13;22.73;;;4.80;99.90;;;;;;6006359;23;20098;-42
2021/10/24 06:10:18;;;;;;;35.95;28.60;;;4.80;99.90;;;;;;6006320;23;20035;-44
2021/10/24 06:12:51;;;;;;;31.50;21.85;;;4.80;99.90;;;;;;6005023;23;20372;-42
2021/10/24 06:15:25;;;;;;;28.60;22.08;;;4.70;99.90;;;;;;6030385;23;20338;-41
2021/10/24 06:17:56;;;;;;;32.22;20.85;;;4.70;99.90;;;;;;6031437;23;21078;-42
2021/10/24 06:20:23;;;;;;;27.83;20.48;;;4.70;99.90;;;;;;6031318;23;20074;-42
2021/10/24 06:22:51;;;;;;;28.63;21.27;;;4.70;99.90;;;;;;6006456;23;20115;-39
2021/10/24 06:25:18;;;;;;;30.10;21.75;;;4.70;99.90;;;;;;6006003;23;20103;-40
2021/10/24 06:27:48;;;;;;;29.58;21.10;;;4.70;99.90;;;;;;6005470;23;20096;-40
2021/10/24 06:30:22;;;;;;;27.73;21.52;;;4.70;99.90;;;;;;6028646;23;20031;-42
2021/10/24 06:33:07;;;;;;;28.88;20.98;;;4.70;99.90;;;;;;6027588;23;20457;-45
2021/10/24 06:35:48;;;;;;;29.65;21.35;;;4.80;99.90;;;;;;6032837;23;20062;-42
2021/10/24 06:38:40;;;;;;;28.25;20.98;;;4.70;99.90;;;;;;6090349;23;20022;-42
2021/10/24 06:41:17;;;;;;;27.55;20.67;;;4.70;99.90;;;;;;6087024;23;20030;-42
2021/10/24 06:44:02;;;;;;;27.98;21.15;;;4.70;99.90;;;;;;6089541;23;20113;-42
2021/10/24 06:46:54;;;;;;;30.98;20.92;;;4.70;99.90;;;;;;6000276;23;20024;-46
2021/10/24 06:49:22;;;;;;;29.35;19.35;;;4.80;99.90;;;;;;6000349;23;20031;-43
2021/10/24 06:51:51;;;;;;;26.75;20.20;;;4.80;99.90;;;;;;5976587;23;20083;-44
2021/10/24 06:54:34;;;;;;;30.58;20.52;;;4.80;99.90;;;;;;5998858;23;20155;-45
2021/10/24 06:57:21;;;;;;;26.00;19.98;;;4.80;99.90;;;;;;5998532;23;20024;-46
2021/10/24 07:00:06;;;;;;;29.27;20.23;;;4.80;99.90;;;;;;5999368;23;20131;-43
2021/10/24 07:02:54;;;;;;;30.63;20.05;;;4.90;99.90;;;;;;5977031;23;20034;-41
2021/10/24 07:05:41;;;;;;;26.73;20.35;;;4.90;99.90;;;;;;6000677;23;20032;-43
2021/10/24 07:08:11;;;;;;;31.02;20.63;;;5.00;99.90;;;;;;6000485;23;20452;-43
2021/10/24 07:10:40;;;;;;;28.60;21.00;;;5.00;99.90;;;;;;5999471;23;20365;-47
2021/10/24 07:13:06;;;;;;;28.52;19.95;;;5.00;99.90;;;;;;5976592;23;20075;-41
2021/10/24 07:15:35;;;;;;;30.75;20.45;;;5.10;99.90;;;;;;5977266;23;20028;-42
2021/10/24 07:18:01;;;;;;;30.08;20.38;;;5.10;99.90;;;;;;5999437;23;20027;-42
2021/10/24 07:20:32;;;;;;;30.15;19.55;;;5.20;99.90;;;;;;5976069;23;20358;-42
2021/10/24 07:23:01;;;;;;;25.67;18.88;;;5.20;99.90;;;;;;5993549;23;20033;-40
2021/10/24 07:25:50;;;;;;;27.70;20.05;;;5.30;99.90;;;;;;6090123;23;20135;-43
2021/10/24 07:28:17;;;;;;;26.90;18.55;;;5.30;99.90;;;;;;6089848;23;20034;-41
2021/10/24 07:30:45;;;;;;;24.98;18.85;;;5.40;99.90;;;;;;6089690;23;20082;-40
2021/10/24 07:33:11;;;;;;;25.58;17.83;;;5.40;99.90;;;;;;6087377;23;20026;-40
2021/10/24 07:35:56;;;;;;;25.58;18.23;;;5.60;99.90;;;;;;6091173;23;20350;-41
2021/10/24 07:38:22;;;;;;;24.63;17.17;;;5.80;99.90;;;;;;6089856;23;20116;-40
2021/10/24 07:40:50;;;;;;;27.45;16.05;;;6.40;99.90;;;;;;6089436;23;20066;-41
2021/10/24 07:43:21;;;;;;;23.30;16.85;;;7.30;99.90;;;;;;6088925;23;20032;-43
2021/10/24 07:45:52;;;;;;;22.45;14.57;;;8.10;99.90;;;;;;6090074;23;20122;-42
2021/10/24 07:48:43;;;;;;;15.48;13.73;;;8.80;99.90;;;;;;6114348;23;20026;-41
2021/10/24 07:51:09;;;;;;;18.30;13.57;;;9.40;99.90;;;;;;6089536;23;20042;-42
2021/10/24 07:53:35;;;;;;;16.90;11.77;;;10.10;99.90;;;;;;6112071;23;20088;-43
2021/10/24 07:56:08;;;;;;;17.70;12.43;;;10.80;99.90;;;;;;6088662;23;20452;-44
2021/10/24 07:58:51;;;;;;;16.10;12.10;;;11.30;99.90;;;;;;6089247;23;20031;-45
2021/10/24 08:01:27;;;;;;;13.07;10.50;;;11.40;99.90;;;;;;6089521;23;20149;-45
2021/10/24 08:03:55;;;;;;;15.18;11.85;;;11.90;99.90;;;;;;6066012;23;20134;-44
2021/10/24 08:06:32;;;;;;;13.85;11.43;;;12.40;99.90;;;;;;6088803;23;20026;-44
2021/10/24 08:09:08;;;;;;;13.15;9.85;;;12.60;99.90;;;;;;6089155;23;20356;-43
2021/10/24 08:11:39;;;;;;;12.75;10.63;;;12.60;99.90;;;;;;6065392;23;20030;-45
2021/10/24 08:14:09;;;;;;;14.32;10.80;;;12.60;99.90;;;;;;6088254;23;20475;-44
2021/10/24 08:16:41;;;;;;;14.98;10.82;;;13.00;99.90;;;;;;6088744;23;20037;-42
2021/10/24 08:19:12;;;;;;;17.67;10.13;;;13.20;99.90;;;;;;6088741;23;20348;-43
2021/10/24 08:21:43;;;;;;;12.10;9.23;;;13.50;99.90;;;;;;6088357;23;20089;-43
2021/10/24 08:24:09;;;;;;;13.27;10.23;;;13.60;99.90;;;;;;6089433;23;20070;-44
2021/10/24 08:26:43;;;;;;;12.95;9.45;;;13.60;99.90;;;;;;6089179;23;20034;-43
2021/10/24 08:29:09;;;;;;;13.10;8.75;;;14.00;99.90;;;;;;6089620;23;20022;-43
2021/10/24 08:31:54;;;;;;;12.35;8.98;;;14.50;99.90;;;;;;6091999;23;20026;-44
2021/10/24 08:34:22;;;;;;;14.00;10.50;;;14.40;99.90;;;;;;6091156;23;20037;-44
2021/10/24 08:36:48;;;;;;;11.85;9.07;;;14.70;99.90;;;;;;6092517;23;20100;-46
2021/10/24 08:39:15;;;;;;;12.00;9.48;;;14.70;99.90;;;;;;6092542;23;20030;-43
2021/10/24 08:41:45;;;;;;;12.40;9.20;;;15.20;99.90;;;;;;6092612;23;20026;-45
2021/10/24 08:44:11;;;;;;;10.52;8.95;;;15.30;99.90;;;;;;6089813;23;20449;-44
2021/10/24 08:46:38;;;;;;;11.07;8.93;;;15.40;99.90;;;;;;6092635;23;20037;-44
2021/10/24 08:49:04;;;;;;;12.50;9.13;;;15.90;99.90;;;;;;6092007;23;20070;-43
2021/10/24 08:51:30;;;;;;;11.50;9.45;;;16.00;99.90;;;;;;6092565;23;20030;-44
2021/10/24 08:53:59;;;;;;;14.35;9.85;;;16.20;99.90;;;;;;6091202;23;20105;-46
2021/10/24 08:56:28;;;;;;;11.40;7.88;;;16.40;94.70;;;;;;6093302;23;20030;-44
2021/10/24 08:58:54;;;;;;;15.88;14.18;;;16.50;97.30;;;;;;6093149;23;20026;-42
2021/10/24 09:01:21;;;;;;;10.65;8.82;;;16.60;96.60;;;;;;6067200;23;20109;-43
2021/10/24 09:04:09;;;;;;;15.38;8.77;;;16.70;93.80;;;;;;6064562;23;20031;-44
2021/10/24 09:06:50;;;;;;;11.20;8.23;;;17.40;84.60;;;;;;6065088;23;20034;-42
2021/10/24 09:09:31;;;;;;;11.75;7.38;;;17.60;82.40;;;;;;6064824;23;20060;-44
2021/10/24 09:12:07;;;;;;;11.27;7.53;;;17.50;84.30;;;;;;6064162;23;20444;-44
2021/10/24 09:14:39;;;;;;;10.45;7.90;;;17.60;81.00;;;;;;6039167;23;20023;-42
2021/10/24 09:17:09;;;;;;;10.55;7.95;;;18.20;73.90;;;;;;6063990;23;20054;-41
2021/10/24 09:19:37;;;;;;;10.82;8.07;;;18.30;77.10;;;;;;6063472;23;20023;-41
2021/10/24 09:22:13;;;;;;;11.15;7.45;;;18.30;73.60;;;;;;6063663;23;20094;-45
2021/10/24 09:25:01;;;;;;;9.90;7.43;;;18.70;71.60;;;;;;6063173;23;20038;-41
2021/10/24 09:27:29;;;;;;;11.05;8.13;;;18.90;64.30;;;;;;6063640;23;20449;-43
2021/10/24 09:29:55;;;;;;;8.38;7.00;;;19.10;69.10;;;;;;6064374;23;20023;-41
2021/10/24 09:32:44;;;;;;;8.07;7.18;;;19.40;69.20;;;;;;6063522;23;20053;-42
2021/10/24 09:35:12;;;;;;;9.38;7.60;;;19.70;60.50;;;;;;6062649;23;20097;-42
2021/10/24 09:38:00;;;;;;;11.25;8.00;;;19.50;63.20;;;;;;6060896;23;20038;-44
2021/10/24 09:40:54;;;;;;;11.07;8.00;;;20.00;60.10;;;;;;6063932;23;20124;-43
2021/10/24 09:43:24;;;;;;;9.20;7.28;;;19.90;60.90;;;;;;6062931;23;20045;-44
2021/10/24 09:45:58;;;;;;;12.00;7.00;;;20.20;60.30;;;;;;6062913;23;20055;-43
2021/10/24 09:48:28;;;;;;;9.32;7.18;;;20.20;59.10;;;;;;6063535;23;20103;-44
2021/10/24 09:50:58;;;;;;;9.82;6.40;;;20.40;57.40;;;;;;6013232;23;20152;-42
2021/10/24 09:53:29;;;;;;;9.47;7.37;;;20.30;57.30;;;;;;6063209;23;20082;-43
2021/10/24 09:55:56;;;;;;;7.90;6.28;;;20.00;57.30;;;;;;6036402;23;20027;-41
2021/10/24 09:58:27;;;;;;;12.20;6.85;;;20.80;56.90;;;;;;6063282;23;20341;-43
2021/10/24 10:00:54;;;;;;;8.40;6.83;;;20.70;54.60;;;;;;6063403;23;20066;-45
2021/10/24 10:03:27;;;;;;;9.07;6.05;;;21.00;55.60;;;;;;6063868;23;20281;-42
2021/10/24 10:05:55;;;;;;;9.63;6.95;;;21.30;55.90;;;;;;6062799;23;20054;-45
2021/10/24 10:08:21;;;;;;;9.85;7.78;;;21.20;54.50;;;;;;6063426;23;20034;-46
2021/10/24 10:11:25;;;;;;;8.20;6.45;;;20.90;54.10;;;;;;6063139;23;20026;-45
2021/10/24 10:14:23;;;;;;;9.80;6.53;;;21.60;53.30;;;;;;6062331;23;20027;-45
2021/10/24 10:16:57;;;;;;;7.95;6.05;;;21.70;51.40;;;;;;6036409;23;20062;-41
2021/10/24 10:19:38;;;;;;;12.27;7.78;;;21.70;50.40;;;;;;6062356;23;20035;-43
2021/10/24 10:22:27;;;;;;;8.48;6.20;;;21.30;50.30;;;;;;5990600;23;20022;-45
2021/10/24 10:24:59;;;;;;;13.95;9.60;;;21.70;51.30;;;;;;5990612;23;20023;-41
2021/10/24 10:27:35;;;;;;;8.63;6.60;;;21.30;51.10;;;;;;6035759;23;20049;-42
2021/10/24 10:30:33;;;;;;;12.32;7.00;;;21.70;51.70;;;;;;6062849;23;20038;-42
2021/10/24 10:33:23;;;;;;;11.55;8.00;;;21.90;48.60;;;;;;6062203;23;20054;-41
2021/10/24 10:35:53;;;;;;;8.25;5.38;;;22.30;48.70;;;;;;6062001;23;20536;-41
2021/10/24 10:38:39;;;;;;;7.75;5.47;;;21.50;45.90;;;;;;6061242;23;20033;-43
2021/10/24 10:41:12;;;;;;;8.48;5.28;;;21.30;47.60;;;;;;6034618;23;20037;-46
2021/10/24 10:44:04;;;;;;;10.07;7.15;;;21.90;49.40;;;;;;6062035;23;20022;-43
2021/10/24 10:46:34;;;;;;;7.60;5.40;;;22.10;46.60;;;;;;6061083;23;20031;-44
2021/10/24 10:49:18;;;;;;;8.52;5.97;;;22.50;47.20;;;;;;6061914;23;20039;-41
2021/10/24 10:51:44;;;;;;;8.35;5.10;;;22.60;44.70;;;;;;6061742;23;20159;-43
2021/10/24 10:54:11;;;;;;;7.43;4.80;;;23.20;47.00;;;;;;6036058;23;20819;-43
2021/10/24 10:56:54;;;;;;;9.23;6.30;;;23.90;46.40;;;;;;6061372;23;20058;-45
2021/10/24 10:59:35;;;;;;;5.97;4.70;;;23.30;45.20;;;;;;6062407;23;20083;-44
2021/10/24 11:02:24;;;;;;;6.15;4.18;;;23.60;45.20;;;;;;6090310;23;20072;-44
2021/10/24 11:04:52;;;;;;;7.40;4.57;;;23.70;45.60;;;;;;6087479;23;20031;-47
2021/10/24 11:07:43;;;;;;;8.27;4.68;;;23.30;44.40;;;;;;6090347;23;20026;-45
2021/10/24 11:10:15;;;;;;;8.50;4.95;;;23.10;44.00;;;;;;6090967;23;20077;-45
2021/10/24 11:12:46;;;;;;;10.27;8.90;;;23.30;43.20;;;;;;6090771;23;20050;-45
2021/10/24 11:15:18;;;;;;;8.10;4.72;;;23.40;43.60;;;;;;6087653;23;20356;-43
2021/10/24 11:17:45;;;;;;;;;;;22.70;42.90;;;;;;6088367;23;20026;-45
2021/10/24 11:20:41;;;;;;;8.63;4.30;;;22.60;43.10;;;;;;6089883;23;19921;-43
2021/10/24 11:23:14;;;;;;;7.95;5.47;;;22.80;44.70;;;;;;6090533;23;20032;-43
2021/10/24 11:25:42;;;;;;;8.13;5.57;;;22.60;45.60;;;;;;6090864;23;20462;-47
2021/10/24 11:28:15;;;;;;;7.75;5.00;;;22.70;45.10;;;;;;6040252;23;20050;-46
2021/10/24 11:30:42;;;;;;;7.78;5.20;;;23.00;45.30;;;;;;6089939;23;20060;-45
2021/10/24 11:33:09;;;;;;;6.65;5.03;;;23.80;44.70;;;;;;6089219;23;20123;-43
2021/10/24 11:35:42;;;;;;;9.48;6.97;;;23.30;43.80;;;;;;6088880;23;20101;-48
2021/10/24 11:38:13;;;;;;;9.05;5.35;;;22.90;44.30;;;;;;6088562;23;20169;-49
2021/10/24 11:40:50;;;;;;;8.52;5.18;;;22.90;44.40;;;;;;6090461;23;20026;-45
2021/10/24 11:43:21;;;;;;;7.82;4.80;;;22.10;43.30;;;;;;6089190;23;20634;-43
2021/10/24 11:45:55;;;;;;;10.25;5.97;;;22.20;44.20;;;;;;6089582;23;20341;-45
2021/10/24 11:48:25;;;;;;;7.63;5.45;;;22.20;44.70;;;;;;6089177;23;20324;-44
2021/10/24 11:50:54;;;;;;;6.55;4.80;;;21.70;45.30;;;;;;6089641;23;20033;-43
2021/10/24 11:53:27;;;;;;;8.55;5.13;;;22.30;45.10;;;;;;6090106;23;20069;-43
2021/10/24 11:55:56;;;;;;;8.95;5.45;;;22.10;45.10;;;;;;6089839;23;20041;-54
2021/10/24 12:01:14;;;;;;;8.88;5.18;;;22.80;43.60;;;;;;6070097;23;20109;-47
2021/10/24 12:03:43;;;;;;;7.57;5.28;;;23.20;45.00;;;;;;6060982;23;20030;-44
2021/10/24 12:06:13;;;;;;;8.70;6.93;;;23.30;44.10;;;;;;6060229;23;20381;-43
2021/10/24 12:08:46;;;;;;;5.60;4.40;;;23.20;43.80;;;;;;6060396;23;20078;-44
2021/10/24 12:11:43;;;;;;;6.97;4.10;;;22.80;45.20;;;;;;6060742;23;20046;-46
2021/10/24 12:14:13;;;;;;;9.18;4.95;;;23.50;43.80;;;;;;5943232;24;20501;-46
2021/10/24 12:16:42;;;;;;;6.80;4.22;;;23.30;43.90;;;;;;5942484;24;20703;-48
2021/10/24 12:19:32;;;;;;;5.80;3.72;;;23.50;44.00;;;;;;5943366;24;20029;-47
2021/10/24 12:22:05;;;;;;;7.45;4.07;;;23.40;44.20;;;;;;5920442;24;20025;-46
2021/10/24 12:24:49;;;;;;;8.77;4.43;;;23.90;42.50;;;;;;5944086;24;20107;-47
2021/10/24 12:27:30;;;;;;;7.43;4.50;;;23.60;42.20;;;;;;5943076;24;20029;-46
2021/10/24 12:30:04;;;;;;;6.90;4.95;;;24.20;43.50;;;;;;5945231;24;20115;-45
2021/10/24 12:32:31;;;;;;;7.95;4.65;;;23.60;42.20;;;;;;5921250;24;20390;-47
2021/10/24 12:35:08;;;;;;;7.35;4.50;;;24.10;42.90;;;;;;5944419;24;20033;-44
2021/10/24 12:37:42;;;;;;;7.72;4.85;;;24.50;40.90;;;;;;5944664;24;20459;-44
2021/10/24 12:40:25;;;;;;;9.18;5.45;;;23.20;40.20;;;;;;5921187;24;20070;-47
2021/10/24 12:43:07;;;;;;;8.90;5.70;;;23.20;41.40;;;;;;5944574;24;20068;-43
2021/10/24 12:45:44;;;;;;;9.20;4.78;;;23.40;43.10;;;;;;5944860;24;20497;-45
2021/10/24 12:48:11;;;;;;;9.23;4.85;;;23.50;41.90;;;;;;5944537;24;20439;-43
2021/10/24 12:50:38;;;;;;;7.25;4.95;;;23.90;42.40;;;;;;5981060;23;20464;-45
2021/10/24 12:53:13;;;;;;;6.80;4.80;;;23.90;42.50;;;;;;6060564;23;20081;-47
2021/10/24 12:55:57;;;;;;;9.10;6.68;;;23.60;41.90;;;;;;6061441;23;20027;-47
2021/10/24 12:58:23;;;;;;;6.53;4.30;;;23.20;42.30;;;;;;6034480;23;20038;-45
2021/10/24 13:00:49;;;;;;;7.53;4.72;;;23.10;42.50;;;;;;6063763;23;20034;-47
2021/10/24 13:03:15;;;;;;;7.78;4.78;;;22.80;41.90;;;;;;6090309;23;20113;-45